createdAt,value
2023-01-18T00:00:41.263Z,7.80
2023-01-18T00:03:13.274Z,8.50
2023-01-18T00:05:41.438Z,9.50
2023-01-18T00:08:09.921Z,10.10
2023-01-18T00:10:36.863Z,9.90
2023-01-18T00:13:04.122Z,10.07
2023-01-18T00:15:34.816Z,9.07
2023-01-18T00:18:01.992Z,9.52
2023-01-18T00:20:30.113Z,7.72
2023-01-18T00:22:59.198Z,8.07
2023-01-18T00:25:26.137Z,6.50
2023-01-18T00:27:54.961Z,8.77
2023-01-18T00:30:25.061Z,5.53
2023-01-18T00:32:59.186Z,5.80
2023-01-18T00:37:54.096Z,6.43
2023-01-18T00:40:22.413Z,6.47
2023-01-18T00:43:07.578Z,6.47
2023-01-18T00:45:34.311Z,8.75
2023-01-18T00:48:02.770Z,7.88
2023-01-18T00:50:29.687Z,7.70
2023-01-18T00:52:58.608Z,7.13
2023-01-18T00:55:26.538Z,6.43
2023-01-18T00:57:53.187Z,6.60
2023-01-18T01:00:20.445Z,8.65
2023-01-18T01:02:47.093Z,5.55
2023-01-18T01:05:38.131Z,6.57
2023-01-18T01:08:06.075Z,9.90
2023-01-18T01:10:36.038Z,8.18
2023-01-18T01:13:21.168Z,5.75
2023-01-18T01:16:06.090Z,5.57
2023-01-18T01:18:51.385Z,5.60
2023-01-18T01:21:36.959Z,7.60
2023-01-18T01:24:22.177Z,5.35
2023-01-18T01:26:48.786Z,6.03
2023-01-18T01:29:16.034Z,4.88
2023-01-18T01:31:42.667Z,4.10
2023-01-18T01:34:09.902Z,4.40
2023-01-18T01:36:36.632Z,4.60
2023-01-18T01:39:03.428Z,5.65
2023-01-18T01:41:40.568Z,5.38
2023-01-18T01:44:20.132Z,5.25
2023-01-18T01:47:06.805Z,5.65
2023-01-18T01:49:35.032Z,5.40
2023-01-18T01:52:08.020Z,5.30
2023-01-18T01:54:47.688Z,5.85
2023-01-18T01:57:31.874Z,5.53
2023-01-18T02:00:08.203Z,5.28
2023-01-18T02:02:35.790Z,11.07
2023-01-18T02:05:05.486Z,6.10
2023-01-18T02:07:32.862Z,7.10
2023-01-18T02:10:00.936Z,8.50
2023-01-18T02:12:29.273Z,6.82
2023-01-18T02:14:57.971Z,7.63
2023-01-18T02:17:38.600Z,8.20
2023-01-18T02:20:24.865Z,11.95
2023-01-18T02:23:19.251Z,10.95
2023-01-18T02:25:51.652Z,9.52
2023-01-18T02:28:30.022Z,14.77
2023-01-18T02:31:18.385Z,13.60
2023-01-18T02:33:45.560Z,14.57
2023-01-18T02:36:31.861Z,10.38
2023-01-18T02:39:10.731Z,8.95
2023-01-18T02:42:07.205Z,9.70
2023-01-18T02:44:59.276Z,8.35
2023-01-18T02:47:27.760Z,15.18
2023-01-18T02:49:56.671Z,12.45
2023-01-18T02:52:53.638Z,12.73
2023-01-18T02:55:41.943Z,13.35
2023-01-18T02:58:33.962Z,11.75
2023-01-18T03:01:11.977Z,13.30
2023-01-18T03:03:42.493Z,12.90
2023-01-18T03:06:09.313Z,12.32
2023-01-18T03:08:40.632Z,12.32
2023-01-18T03:11:16.671Z,12.63
2023-01-18T03:13:43.232Z,10.65
2023-01-18T03:16:18.590Z,9.85
2023-01-18T03:19:35.581Z,8.15
2023-01-18T03:22:03.143Z,7.63
2023-01-18T03:24:31.296Z,7.93
2023-01-18T03:27:18.090Z,6.10
2023-01-18T03:30:05.482Z,8.07
2023-01-18T03:32:53.567Z,8.52
2023-01-18T03:35:26.881Z,9.82
2023-01-18T03:37:56.384Z,10.65
2023-01-18T03:40:26.555Z,7.63
2023-01-18T03:43:02.023Z,7.75
2023-01-18T03:45:42.357Z,8.75
2023-01-18T03:48:10.420Z,7.38
2023-01-18T03:50:53.129Z,7.25
2023-01-18T03:53:54.695Z,13.07
2023-01-18T03:56:24.100Z,13.30
2023-01-18T03:58:54.337Z,12.95
2023-01-18T04:01:21.684Z,11.70
2023-01-18T04:03:48.437Z,9.40
2023-01-18T04:06:17.282Z,6.65
2023-01-18T04:08:46.802Z,5.82
2023-01-18T04:11:13.902Z,18.25
2023-01-18T04:13:40.540Z,16.35
2023-01-18T04:16:07.491Z,14.68
2023-01-18T04:18:34.135Z,13.32
2023-01-18T04:21:04.045Z,13.45
2023-01-18T04:23:30.699Z,15.63
2023-01-18T04:26:11.969Z,21.08
2023-01-18T04:28:38.544Z,15.68
2023-01-18T04:31:05.596Z,15.48
2023-01-18T04:33:32.624Z,13.02
2023-01-18T04:35:59.274Z,14.70
2023-01-18T04:38:26.238Z,10.63
2023-01-18T04:40:54.400Z,14.75
2023-01-18T04:43:22.637Z,14.55
2023-01-18T04:45:59.127Z,13.15
2023-01-18T04:48:30.847Z,14.77
2023-01-18T04:50:57.481Z,12.07
2023-01-18T04:53:24.174Z,10.77
2023-01-18T04:55:51.348Z,9.88
2023-01-18T04:58:17.941Z,11.57
2023-01-18T05:00:44.794Z,8.18
2023-01-18T05:03:12.398Z,9.90
2023-01-18T05:05:39.214Z,9.93
2023-01-18T05:08:06.054Z,11.95
2023-01-18T05:10:33.731Z,12.85
2023-01-18T05:13:00.931Z,12.93
2023-01-18T05:15:27.891Z,13.88
2023-01-18T05:17:54.491Z,13.35
2023-01-18T05:20:21.060Z,9.20
2023-01-18T05:22:47.722Z,7.85
2023-01-18T05:25:14.513Z,6.80
2023-01-18T05:27:41.163Z,6.90
2023-01-18T05:30:09.778Z,7.43
2023-01-18T05:32:36.404Z,10.05
2023-01-18T05:35:05.113Z,12.50
2023-01-18T05:37:31.751Z,12.43
2023-01-18T05:39:59.378Z,13.30
2023-01-18T05:42:26.020Z,17.67
2023-01-18T05:44:52.742Z,20.88
2023-01-18T05:47:19.374Z,16.17
2023-01-18T05:49:45.972Z,14.75
2023-01-18T05:52:12.830Z,28.80
2023-01-18T05:54:39.536Z,16.63
2023-01-18T05:57:06.124Z,17.20
2023-01-18T05:59:32.737Z,17.58
2023-01-18T06:01:59.410Z,15.93
2023-01-18T06:04:26.139Z,18.60
2023-01-18T06:06:52.786Z,20.15
2023-01-18T06:09:19.385Z,17.88
2023-01-18T06:11:45.994Z,17.38
2023-01-18T06:14:12.790Z,16.85
2023-01-18T06:16:39.548Z,18.80
2023-01-18T06:19:06.140Z,17.45
2023-01-18T06:21:32.885Z,17.33
2023-01-18T06:23:59.543Z,14.65
2023-01-18T06:26:26.225Z,14.25
2023-01-18T06:28:53.625Z,18.88
2023-01-18T06:31:20.368Z,16.08
2023-01-18T06:33:47.113Z,16.58
2023-01-18T06:36:13.729Z,15.27
2023-01-18T06:38:41.418Z,22.73
2023-01-18T06:41:09.302Z,21.17
2023-01-18T06:43:35.957Z,19.75
2023-01-18T06:46:02.937Z,19.02
2023-01-18T06:48:29.930Z,20.05
2023-01-18T06:50:57.521Z,17.02
2023-01-18T06:53:24.610Z,15.40
2023-01-18T06:55:58.567Z,14.30
2023-01-18T06:58:26.574Z,14.48
2023-01-18T07:00:57.663Z,16.60
2023-01-18T07:03:25.611Z,13.68
2023-01-18T07:06:00.186Z,13.60
2023-01-18T07:08:28.033Z,15.00
2023-01-18T07:10:54.958Z,12.82
2023-01-18T07:13:22.256Z,15.90
2023-01-18T07:16:00.776Z,16.20
2023-01-18T07:18:29.626Z,14.85
2023-01-18T07:21:00.846Z,11.07
2023-01-18T07:23:28.711Z,16.20
2023-01-18T07:26:06.025Z,18.10
2023-01-18T07:28:33.516Z,18.10
2023-01-18T07:31:01.076Z,20.58
2023-01-18T07:33:28.637Z,22.10
2023-01-18T07:35:56.809Z,19.17
2023-01-18T07:38:24.106Z,15.18
2023-01-18T07:41:14.305Z,30.88
2023-01-18T07:43:42.789Z,24.65
2023-01-18T07:46:12.239Z,27.77
2023-01-18T07:48:39.186Z,17.63
2023-01-18T07:51:08.771Z,17.20
2023-01-18T07:53:37.265Z,10.68
2023-01-18T07:56:08.134Z,10.40
2023-01-18T07:58:36.384Z,12.93
2023-01-18T08:01:11.568Z,25.02
2023-01-18T08:03:41.398Z,39.97
2023-01-18T08:06:13.511Z,26.17
2023-01-18T08:08:40.627Z,23.05
2023-01-18T08:11:07.856Z,22.25
2023-01-18T08:13:34.548Z,23.45
2023-01-18T08:16:03.093Z,25.23
2023-01-18T08:18:29.993Z,22.77
2023-01-18T08:20:56.842Z,28.42
2023-01-18T08:23:23.777Z,36.50
2023-01-18T08:25:51.162Z,21.80
2023-01-18T08:28:18.793Z,21.30
2023-01-18T08:30:47.291Z,15.68
2023-01-18T08:33:14.775Z,22.25
2023-01-18T08:35:42.765Z,22.98
2023-01-18T08:38:09.860Z,25.38
2023-01-18T08:40:36.733Z,26.38
2023-01-18T08:43:06.686Z,25.02
2023-01-18T08:45:35.092Z,22.20
2023-01-18T08:48:04.387Z,19.13
2023-01-18T08:50:32.650Z,19.27
2023-01-18T08:53:00.591Z,25.08
2023-01-18T08:55:28.444Z,33.22
2023-01-18T09:24:54.029Z,22.85
2023-01-18T09:27:20.583Z,24.10
2023-01-18T09:29:52.241Z,24.50
2023-01-18T09:32:20.227Z,25.40
2023-01-18T09:34:50.871Z,28.13
2023-01-18T09:37:19.233Z,24.33
2023-01-18T09:39:51.773Z,26.35
2023-01-18T09:42:29.898Z,22.55
2023-01-18T09:44:59.821Z,25.42
2023-01-18T09:47:39.498Z,19.63
2023-01-18T09:50:13.599Z,22.00
2023-01-18T09:52:52.246Z,21.83
2023-01-18T09:55:28.925Z,28.50
2023-01-18T09:58:16.808Z,27.52
2023-01-18T10:00:47.677Z,31.15
2023-01-18T10:03:26.315Z,26.63
2023-01-18T11:31:16.086Z,2.25
2023-01-18T11:33:55.984Z,2.60
2023-01-18T11:36:41.163Z,3.60
2023-01-18T11:39:23.607Z,3.35
2023-01-18T11:41:52.872Z,2.03
2023-01-18T11:44:25.634Z,2.30
2023-01-18T12:12:45.138Z,3.70
2023-01-18T12:15:23.613Z,4.20
2023-01-18T12:18:13.928Z,2.75
2023-01-18T12:21:03.800Z,2.00
2023-01-18T16:09:01.731Z,12.98
2023-01-18T16:11:38.945Z,9.20
2023-01-18T16:14:16.932Z,11.93
2023-01-18T16:16:43.969Z,12.10
2023-01-18T16:19:21.355Z,13.05
2023-01-18T16:22:07.073Z,11.75
2023-01-18T16:24:46.152Z,15.55
2023-01-18T16:27:23.047Z,14.15
2023-01-18T16:29:52.932Z,13.90
2023-01-18T16:32:28.080Z,14.02
2023-01-18T16:35:00.912Z,17.65
2023-01-18T16:37:27.891Z,20.42
2023-01-18T16:39:55.428Z,21.23
2023-01-18T16:42:29.622Z,22.42
2023-01-18T16:44:59.865Z,20.30
2023-01-18T16:47:26.537Z,22.20
2023-01-18T16:49:53.227Z,32.58
2023-01-18T16:52:19.895Z,44.33
2023-01-18T16:54:46.671Z,39.38
2023-01-18T16:57:23.861Z,29.63
2023-01-18T16:59:50.959Z,25.85
2023-01-18T17:02:17.704Z,21.70
2023-01-18T17:04:46.635Z,17.58
2023-01-18T17:07:13.869Z,14.40
2023-01-18T17:09:48.553Z,10.07
2023-01-18T17:12:16.203Z,8.20
2023-01-18T17:14:42.963Z,8.48
2023-01-18T17:17:11.083Z,11.63
2023-01-18T17:19:38.161Z,11.98
2023-01-18T17:22:06.297Z,11.75
2023-01-18T17:24:33.044Z,17.63
2023-01-18T17:26:59.699Z,22.85
2023-01-18T17:29:26.324Z,25.92
2023-01-18T17:31:53.410Z,30.77
2023-01-18T17:34:29.531Z,32.35
2023-01-18T17:36:58.401Z,28.58
2023-01-18T17:39:36.908Z,28.50
2023-01-18T17:42:16.448Z,28.27
2023-01-18T17:44:45.714Z,26.73
2023-01-18T17:47:13.039Z,29.65
2023-01-18T17:49:39.707Z,31.15
2023-01-18T17:52:06.368Z,32.15
2023-01-18T17:54:34.902Z,26.67
2023-01-18T17:57:01.707Z,26.88
2023-01-18T17:59:28.417Z,24.20
2023-01-18T18:01:55.216Z,26.20
2023-01-18T18:04:21.871Z,25.80
2023-01-18T18:06:54.270Z,28.55
2023-01-18T18:09:21.426Z,27.80
2023-01-18T18:14:29.050Z,30.23
2023-01-18T18:16:55.696Z,31.10
2023-01-18T18:19:33.936Z,29.02
2023-01-18T18:22:01.241Z,26.45
2023-01-18T18:24:27.996Z,24.17
2023-01-18T18:26:54.640Z,26.77
2023-01-18T18:29:21.358Z,21.65
2023-01-18T18:31:48.028Z,20.10
2023-01-18T18:34:14.684Z,21.10
2023-01-18T18:36:41.395Z,19.42
2023-01-18T18:39:08.955Z,22.35
2023-01-18T18:41:35.799Z,20.88
2023-01-18T18:44:02.952Z,24.33
2023-01-18T18:46:29.798Z,25.27
2023-01-18T18:48:56.673Z,20.50
2023-01-18T18:51:26.508Z,21.60
2023-01-18T18:53:53.365Z,25.27
2023-01-18T18:56:20.779Z,25.58
2023-01-18T18:58:51.204Z,24.33
2023-01-18T19:01:23.652Z,24.88
2023-01-18T19:03:51.982Z,21.52
2023-01-18T19:06:20.550Z,23.63
2023-01-18T19:08:47.575Z,23.30
2023-01-18T19:11:15.685Z,29.75
2023-01-18T19:13:43.388Z,36.40
2023-01-18T19:16:10.583Z,24.10
2023-01-18T19:18:37.343Z,24.88
2023-01-18T19:21:04.772Z,25.13
2023-01-18T19:23:31.618Z,24.27
2023-01-18T19:25:58.894Z,24.75
2023-01-18T19:28:25.581Z,26.20
2023-01-18T19:30:52.221Z,34.78
2023-01-18T19:33:18.807Z,28.38
2023-01-18T19:35:46.119Z,31.65
2023-01-18T19:38:13.589Z,33.00
2023-01-18T19:40:40.198Z,31.02
2023-01-18T19:43:09.323Z,28.08
2023-01-18T19:45:37.617Z,28.92
2023-01-18T19:48:05.225Z,27.77
2023-01-18T19:50:32.113Z,27.20
2023-01-18T19:52:59.737Z,24.55
2023-01-18T19:55:26.594Z,24.40
2023-01-18T19:57:55.924Z,28.70
2023-01-18T20:00:22.907Z,33.88
2023-01-18T20:02:49.635Z,29.38
2023-01-18T20:05:16.790Z,30.92
2023-01-18T20:07:43.564Z,32.63
2023-01-18T20:10:10.912Z,33.75
2023-01-18T20:12:38.448Z,29.58
2023-01-18T20:15:06.296Z,27.90
2023-01-18T20:17:33.179Z,28.00
2023-01-18T20:19:59.853Z,30.25
2023-01-18T20:22:26.569Z,28.67
2023-01-18T20:24:53.565Z,28.95
2023-01-18T20:27:23.071Z,29.38
2023-01-18T20:29:53.337Z,28.42
2023-01-18T20:32:19.991Z,27.63
2023-01-18T20:34:47.442Z,28.15
2023-01-18T20:37:15.477Z,24.88
2023-01-18T20:39:42.605Z,25.83
2023-01-18T20:42:09.437Z,19.30
2023-01-18T20:44:36.133Z,24.42
2023-01-18T20:47:03.241Z,25.15
2023-01-18T20:49:37.768Z,25.00
2023-01-18T20:52:06.868Z,25.58
2023-01-18T20:54:35.679Z,26.35
2023-01-18T20:57:03.473Z,25.13
2023-01-18T20:59:30.159Z,25.48
2023-01-18T21:01:57.028Z,29.45
2023-01-18T21:04:24.814Z,26.30
2023-01-18T21:06:51.440Z,25.95
2023-01-18T21:09:18.220Z,25.80
2023-01-18T21:11:45.011Z,26.20
2023-01-18T21:14:12.793Z,21.15
2023-01-18T21:16:39.436Z,24.58
2023-01-18T21:19:06.136Z,23.33
2023-01-18T21:21:32.872Z,25.42
2023-01-18T21:24:00.153Z,25.17
2023-01-18T21:26:27.087Z,20.85
2023-01-18T21:28:54.232Z,20.73
2023-01-18T21:31:21.639Z,24.58
2023-01-18T21:33:48.306Z,19.67
2023-01-18T21:36:20.350Z,19.23
2023-01-18T21:38:47.271Z,19.27
2023-01-18T21:41:32.537Z,22.60
2023-01-18T21:44:21.097Z,18.42
2023-01-18T21:46:49.335Z,21.00
2023-01-18T21:52:39.833Z,18.65
2023-01-18T21:55:06.845Z,23.20
2023-01-18T21:57:33.430Z,21.85
2023-01-18T22:00:00.036Z,18.17
2023-01-18T22:02:26.737Z,16.73
2023-01-18T22:05:00.198Z,17.52
2023-01-18T22:07:28.150Z,15.43
2023-01-18T22:10:04.163Z,16.27
2023-01-18T22:12:33.432Z,15.70
2023-01-18T22:15:02.141Z,17.83
2023-01-18T22:17:29.158Z,15.32
2023-01-18T22:19:58.228Z,16.90
2023-01-18T22:22:24.982Z,15.48
2023-01-18T22:24:51.888Z,14.65
2023-01-18T22:27:18.517Z,14.10
2023-01-18T22:29:45.426Z,15.48
2023-01-18T22:32:12.165Z,13.75
2023-01-18T22:34:38.838Z,13.65
2023-01-18T22:37:05.830Z,13.40
2023-01-18T22:39:32.472Z,12.77
2023-01-18T22:41:59.157Z,13.32
2023-01-18T22:44:25.845Z,16.00
2023-01-18T22:46:52.484Z,15.35
2023-01-18T22:49:19.194Z,14.18
2023-01-18T22:51:45.861Z,14.27
2023-01-18T22:54:14.914Z,14.20
2023-01-18T22:56:41.617Z,13.02
2023-01-18T22:59:08.788Z,11.38
2023-01-18T23:01:35.532Z,14.43
2023-01-18T23:04:03.918Z,13.10
2023-01-18T23:06:48.002Z,12.65
2023-01-18T23:09:16.265Z,13.95
2023-01-18T23:11:44.895Z,14.05
2023-01-18T23:14:30.511Z,19.58
2023-01-18T23:17:15.379Z,16.75
2023-01-18T23:19:42.016Z,18.17
2023-01-18T23:22:08.638Z,20.27
2023-01-18T23:24:36.640Z,20.65
2023-01-18T23:27:05.556Z,18.00
2023-01-18T23:29:32.229Z,15.93
2023-01-18T23:31:59.063Z,15.88
2023-01-18T23:34:26.051Z,17.08
2023-01-18T23:36:53.100Z,12.88
2023-01-18T23:39:38.773Z,13.23
2023-01-18T23:42:24.072Z,12.48
2023-01-18T23:45:09.250Z,13.07
2023-01-18T23:47:54.636Z,12.18
2023-01-18T23:50:40.088Z,12.27
2023-01-18T23:53:30.501Z,11.18
2023-01-18T23:55:57.683Z,11.63
2023-01-18T23:58:27.390Z,10.27
